Time;durP1;ratioP1;P1;durP2;ratioP2;P2;SDS_P1;SDS_P2;PMS_P1;PMS_P2;Temp;Humidity;BMP_temperature;BMP_pressure;BME280_temperature;BME280_humidity;BME280_pressure;Samples;Min_cycle;Max_cycle;Signal;HPM_P1;HPM_P2
2024/02/22 00:01:55;;;;;;;2.40;0.80;;;22.70;52.70;;;;;;5037845;28;20486;-67
2024/02/22 00:04:21;;;;;;;1.13;0.70;;;22.70;52.70;;;;;;5040063;28;20511;-66
2024/02/22 00:06:47;;;;;;;1.30;0.80;;;22.70;52.70;;;;;;5040258;28;20083;-66
2024/02/22 00:09:12;;;;;;;1.05;0.85;;;22.70;52.70;;;;;;5038582;28;20083;-67
2024/02/22 00:11:40;;;;;;;1.60;0.70;;;22.70;52.70;;;;;;5040415;28;20114;-67
2024/02/22 00:14:06;;;;;;;1.95;0.70;;;22.70;52.70;;;;;;5040811;28;20528;-67
2024/02/22 00:16:34;;;;;;;1.10;0.80;;;22.70;52.70;;;;;;5038370;28;20013;-67
2024/02/22 00:19:00;;;;;;;1.60;0.90;;;22.70;52.70;;;;;;5040017;28;20525;-67
2024/02/22 00:21:25;;;;;;;1.42;0.80;;;22.70;52.70;;;;;;5038639;28;20052;-66
2024/02/22 00:23:51;;;;;;;1.08;0.60;;;22.60;52.70;;;;;;5040538;28;20119;-66
2024/02/22 00:26:17;;;;;;;1.23;0.75;;;22.70;52.80;;;;;;5040566;28;20025;-66
2024/02/22 00:28:43;;;;;;;1.25;0.70;;;22.60;52.70;;;;;;5039138;28;20029;-63
2024/02/22 00:31:09;;;;;;;1.50;0.80;;;22.60;53.20;;;;;;5039720;28;20530;-63
2024/02/22 00:33:34;;;;;;;0.60;0.60;;;22.60;52.70;;;;;;5039495;28;20028;-62
2024/02/22 00:36:00;;;;;;;1.25;0.68;;;22.60;52.70;;;;;;5038951;28;20032;-64
2024/02/22 00:38:26;;;;;;;1.45;0.80;;;22.60;53.30;;;;;;5038853;28;20117;-62
2024/02/22 00:40:52;;;;;;;1.10;0.70;;;22.60;52.70;;;;;;5040427;28;20021;-63
2024/02/22 00:43:18;;;;;;;1.48;0.70;;;22.60;52.80;;;;;;5041522;28;20021;-62
2024/02/22 00:45:44;;;;;;;1.05;0.60;;;22.50;52.80;;;;;;5038183;28;20025;-62
2024/02/22 00:48:09;;;;;;;1.13;0.77;;;22.50;52.80;;;;;;5037676;28;20029;-64
2024/02/22 00:50:35;;;;;;;0.70;0.68;;;22.50;52.80;;;;;;5038406;28;20021;-64
2024/02/22 00:53:01;;;;;;;1.10;0.80;;;22.50;52.80;;;;;;5040905;28;20100;-63
2024/02/22 00:55:27;;;;;;;1.02;0.70;;;22.50;52.80;;;;;;5037250;28;20111;-63
2024/02/22 00:57:52;;;;;;;0.95;0.63;;;22.50;52.70;;;;;;5039324;28;20028;-64
2024/02/22 01:00:18;;;;;;;1.10;0.70;;;22.50;52.70;;;;;;5037733;28;20021;-63
2024/02/22 01:02:44;;;;;;;1.00;0.70;;;22.50;52.70;;;;;;5038608;28;20040;-63
2024/02/22 01:05:09;;;;;;;0.88;0.60;;;22.40;52.60;;;;;;5038797;28;20519;-63
2024/02/22 01:07:35;;;;;;;1.20;0.70;;;22.40;52.60;;;;;;5036362;28;20048;-63
2024/02/22 01:10:01;;;;;;;0.77;0.60;;;22.40;52.60;;;;;;5039575;28;20067;-63
2024/02/22 01:12:27;;;;;;;1.13;0.70;;;22.40;52.60;;;;;;5035742;28;20128;-63
2024/02/22 01:14:53;;;;;;;2.10;0.73;;;22.40;52.60;;;;;;5037258;28;20121;-63
2024/02/22 01:17:18;;;;;;;0.98;0.70;;;22.40;52.60;;;;;;5038326;28;20109;-68
2024/02/22 01:19:47;;;;;;;0.95;0.70;;;22.40;52.60;;;;;;5038390;28;20023;-68
2024/02/22 01:22:13;;;;;;;0.97;0.63;;;22.40;52.60;;;;;;5038086;28;20146;-68
2024/02/22 01:24:40;;;;;;;0.80;0.60;;;22.40;52.60;;;;;;5036537;28;20271;-69
2024/02/22 01:27:07;;;;;;;0.90;0.60;;;22.30;52.60;;;;;;5037763;28;20044;-63
2024/02/22 01:29:33;;;;;;;1.23;0.70;;;22.30;52.60;;;;;;5035888;28;20026;-63
2024/02/22 01:31:59;;;;;;;1.10;0.80;;;22.30;52.50;;;;;;5037412;28;20442;-63
2024/02/22 01:34:24;;;;;;;1.40;0.70;;;22.30;52.50;;;;;;5037782;28;20029;-63
2024/02/22 01:36:50;;;;;;;0.93;0.70;;;22.30;52.50;;;;;;5037246;28;20116;-66
2024/02/22 01:39:16;;;;;;;1.25;0.80;;;22.30;52.50;;;;;;5036672;28;20034;-67
2024/02/22 01:41:41;;;;;;;0.80;0.60;;;22.30;52.50;;;;;;5037968;28;20105;-67
2024/02/22 01:44:07;;;;;;;0.60;0.60;;;22.30;53.00;;;;;;5036625;28;20057;-66
2024/02/22 01:46:33;;;;;;;0.90;0.55;;;22.30;52.50;;;;;;5036650;28;20115;-66
2024/02/22 01:49:00;;;;;;;1.33;0.80;;;22.30;52.50;;;;;;5036268;28;20415;-67
2024/02/22 01:51:26;;;;;;;1.00;0.80;;;22.20;52.50;;;;;;5038594;28;20044;-66
2024/02/22 01:53:52;;;;;;;1.08;0.70;;;22.20;52.50;;;;;;5038919;28;20438;-66
2024/02/22 01:56:20;;;;;;;0.90;0.70;;;22.20;52.60;;;;;;5038468;28;20509;-67
2024/02/22 01:58:48;;;;;;;1.05;0.60;;;22.20;52.60;;;;;;5071418;28;20649;-66
2024/02/22 02:01:13;;;;;;;0.65;0.60;;;22.20;52.60;;;;;;5039477;28;20198;-66
2024/02/22 02:03:40;;;;;;;0.70;0.60;;;22.20;52.60;;;;;;5036263;28;20112;-66
2024/02/22 02:06:05;;;;;;;0.95;0.60;;;22.20;52.70;;;;;;5036867;28;20036;-66
2024/02/22 02:08:32;;;;;;;1.15;0.80;;;22.20;52.70;;;;;;5035037;28;20417;-67
2024/02/22 02:10:58;;;;;;;1.10;0.73;;;22.20;52.70;;;;;;5035805;28;20112;-67
2024/02/22 02:13:24;;;;;;;1.58;0.93;;;22.20;52.70;;;;;;5038398;28;20029;-67
2024/02/22 02:15:50;;;;;;;0.85;0.60;;;22.20;52.70;;;;;;5037616;28;20032;-67
2024/02/22 02:18:16;;;;;;;0.95;0.63;;;22.10;52.70;;;;;;5035012;28;20547;-66
2024/02/22 02:20:59;;;;;;;1.20;0.65;;;22.20;52.70;;;;;;5036913;28;20021;-66
2024/02/22 02:23:27;;;;;;;0.95;0.80;;;22.20;52.80;;;;;;5036817;28;20017;-66
2024/02/22 02:25:53;;;;;;;0.88;0.60;;;22.10;52.70;;;;;;5038549;28;20499;-66
2024/02/22 02:28:18;;;;;;;0.93;0.60;;;22.10;52.70;;;;;;5035696;28;20036;-66
2024/02/22 02:30:44;;;;;;;0.75;0.60;;;22.10;52.80;;;;;;5037014;28;20388;-67
2024/02/22 02:33:10;;;;;;;0.45;0.45;;;22.10;52.80;;;;;;5036009;28;20037;-66
2024/02/22 02:35:37;;;;;;;0.65;0.60;;;22.10;52.80;;;;;;5036526;28;20029;-66
2024/02/22 02:38:09;;;;;;;1.40;0.65;;;22.10;52.80;;;;;;5037324;28;20026;-64
2024/02/22 02:40:35;;;;;;;0.93;0.70;;;22.10;52.80;;;;;;5038641;28;20067;-64
2024/02/22 02:43:01;;;;;;;0.82;0.70;;;22.10;52.80;;;;;;5038747;28;20029;-62
2024/02/22 02:45:26;;;;;;;0.98;0.60;;;22.00;52.80;;;;;;5034739;28;20112;-64
2024/02/22 02:47:52;;;;;;;0.80;0.63;;;22.00;52.80;;;;;;5034629;28;20029;-63
2024/02/22 02:50:18;;;;;;;1.08;0.80;;;22.00;52.80;;;;;;5034682;28;20030;-63
2024/02/22 02:52:43;;;;;;;0.60;0.60;;;22.10;53.40;;;;;;5038301;28;20119;-63
2024/02/22 02:55:12;;;;;;;1.25;0.68;;;22.00;52.80;;;;;;5037474;28;20474;-62
2024/02/22 02:57:38;;;;;;;0.70;0.60;;;22.00;52.90;;;;;;5037897;28;20554;-62
2024/02/22 03:00:09;;;;;;;0.98;0.70;;;22.00;52.80;;;;;;5038389;28;20056;-62
2024/02/22 03:02:35;;;;;;;1.05;0.70;;;22.00;52.90;;;;;;5038712;28;20024;-62
2024/02/22 03:05:00;;;;;;;1.23;0.80;;;22.00;52.90;;;;;;5041081;28;20458;-61
2024/02/22 03:07:26;;;;;;;0.95;0.73;;;22.00;52.90;;;;;;5041933;28;20041;-64
2024/02/22 03:09:51;;;;;;;1.13;0.70;;;22.00;52.90;;;;;;5039319;28;20040;-63
2024/02/22 03:12:17;;;;;;;1.30;0.70;;;22.00;52.90;;;;;;5040687;28;20224;-63
2024/02/22 03:14:43;;;;;;;0.82;0.60;;;21.90;52.90;;;;;;5038881;28;20601;-63
2024/02/22 03:17:08;;;;;;;0.60;0.60;;;22.00;52.90;;;;;;5039372;28;20036;-62
2024/02/22 03:19:34;;;;;;;0.60;0.60;;;22.00;52.90;;;;;;5037239;28;20108;-64
2024/02/22 03:22:00;;;;;;;1.08;0.70;;;22.00;53.00;;;;;;5040615;28;20082;-63
2024/02/22 03:24:26;;;;;;;0.73;0.70;;;21.90;52.90;;;;;;5040265;28;20528;-64
2024/02/22 03:26:53;;;;;;;1.15;0.80;;;21.90;52.90;;;;;;5040148;28;20432;-63
2024/02/22 03:29:19;;;;;;;0.90;0.60;;;21.90;53.00;;;;;;5041373;28;20492;-64
2024/02/22 03:31:45;;;;;;;0.90;0.80;;;21.90;53.00;;;;;;5039090;28;20034;-64
2024/02/22 03:34:11;;;;;;;2.05;0.68;;;21.90;52.90;;;;;;5037719;28;20028;-63
2024/02/22 03:36:41;;;;;;;0.80;0.50;;;21.90;53.00;;;;;;5040900;28;20024;-63
2024/02/22 03:39:11;;;;;;;0.88;0.63;;;21.90;53.00;;;;;;5039858;28;20083;-63
2024/02/22 03:41:37;;;;;;;0.70;0.50;;;21.90;53.00;;;;;;5040689;28;20553;-63
2024/02/22 03:44:04;;;;;;;0.60;0.60;;;21.90;53.00;;;;;;5041023;28;20032;-63
2024/02/22 03:46:30;;;;;;;0.80;0.70;;;21.90;53.00;;;;;;5039697;28;20095;-63
2024/02/22 03:48:55;;;;;;;0.63;0.60;;;21.90;53.00;;;;;;5037922;28;20610;-66
2024/02/22 03:51:22;;;;;;;0.80;0.60;;;21.90;53.00;;;;;;5039312;28;20148;-66
2024/02/22 03:53:49;;;;;;;0.93;0.60;;;21.80;53.00;;;;;;5040216;28;20029;-66
2024/02/22 03:56:16;;;;;;;0.50;0.50;;;21.80;53.00;;;;;;5041052;28;20048;-67
2024/02/22 03:58:42;;;;;;;1.83;1.25;;;21.80;53.00;;;;;;5038068;28;20357;-63
2024/02/22 04:01:08;;;;;;;1.00;0.75;;;21.80;53.00;;;;;;5043651;28;20024;-63
2024/02/22 04:03:34;;;;;;;0.90;0.60;;;21.80;53.00;;;;;;5037393;28;20112;-62
2024/02/22 04:06:00;;;;;;;0.90;0.70;;;21.80;53.00;;;;;;5040520;28;20151;-63
2024/02/22 04:08:26;;;;;;;0.50;0.50;;;21.80;53.00;;;;;;5038853;28;20033;-62
2024/02/22 04:10:51;;;;;;;0.90;0.70;;;21.80;53.10;;;;;;5039516;28;20021;-64
2024/02/22 04:13:17;;;;;;;0.70;0.60;;;21.80;53.50;;;;;;5039097;28;20065;-62
2024/02/22 04:15:43;;;;;;;0.60;0.60;;;21.80;53.10;;;;;;5040399;28;20040;-62
2024/02/22 04:18:09;;;;;;;0.90;0.60;;;21.80;53.10;;;;;;5039043;28;20022;-64
2024/02/22 04:20:34;;;;;;;0.70;0.60;;;21.80;53.10;;;;;;5039801;28;20017;-64
2024/02/22 04:23:00;;;;;;;0.55;0.50;;;21.80;53.10;;;;;;5039467;28;20108;-64
2024/02/22 04:25:26;;;;;;;0.57;0.52;;;21.80;53.10;;;;;;5038235;28;20029;-64
2024/02/22 04:27:51;;;;;;;0.90;0.70;;;21.80;53.10;;;;;;5039474;28;20025;-64
2024/02/22 04:30:18;;;;;;;1.33;0.50;;;21.80;53.10;;;;;;5038087;28;20036;-64
2024/02/22 04:32:46;;;;;;;0.82;0.60;;;21.80;53.10;;;;;;5040482;28;20543;-64
2024/02/22 04:35:12;;;;;;;1.15;0.70;;;21.80;53.20;;;;;;5037048;28;20024;-65
2024/02/22 04:37:38;;;;;;;0.63;0.55;;;21.70;53.10;;;;;;5033782;28;20036;-64
2024/02/22 04:40:05;;;;;;;0.88;0.60;;;21.70;53.10;;;;;;5037674;28;20051;-64
2024/02/22 04:42:31;;;;;;;0.65;0.60;;;21.70;53.10;;;;;;5037775;28;20032;-64
2024/02/22 04:44:57;;;;;;;0.80;0.60;;;21.70;53.10;;;;;;5039539;28;20458;-64
2024/02/22 04:47:22;;;;;;;0.82;0.63;;;21.70;53.10;;;;;;5038542;28;20025;-64
2024/02/22 04:49:50;;;;;;;0.90;0.60;;;21.70;53.10;;;;;;5037313;28;20044;-65
2024/02/22 04:52:16;;;;;;;0.60;0.60;;;21.70;53.10;;;;;;5038380;28;20029;-64
2024/02/22 04:54:41;;;;;;;0.60;0.43;;;21.70;53.10;;;;;;5037380;28;20475;-64
2024/02/22 04:57:07;;;;;;;0.50;0.50;;;21.70;53.10;;;;;;5039335;28;20033;-64
2024/02/22 04:59:33;;;;;;;0.73;0.60;;;21.70;53.10;;;;;;5039451;28;20025;-64
2024/02/22 05:01:58;;;;;;;0.68;0.60;;;21.70;53.10;;;;;;5038740;28;20044;-64
2024/02/22 05:04:24;;;;;;;0.80;0.57;;;21.70;53.10;;;;;;5036545;28;20025;-65
2024/02/22 05:06:49;;;;;;;0.50;0.50;;;21.70;53.10;;;;;;5038227;28;20037;-64
2024/02/22 05:09:15;;;;;;;0.80;0.70;;;21.70;53.10;;;;;;5039056;28;20112;-66
2024/02/22 05:11:47;;;;;;;0.70;0.52;;;21.60;53.10;;;;;;5039009;28;20462;-66
2024/02/22 05:14:16;;;;;;;0.75;0.60;;;21.70;53.20;;;;;;5039077;28;20017;-66
2024/02/22 05:16:41;;;;;;;0.57;0.55;;;21.60;53.10;;;;;;5039714;28;20086;-66
2024/02/22 05:19:07;;;;;;;0.50;0.50;;;21.60;53.10;;;;;;5035527;28;20433;-66
2024/02/22 05:21:33;;;;;;;0.90;0.60;;;21.60;53.00;;;;;;5037037;28;20147;-65
2024/02/22 05:24:00;;;;;;;0.95;0.60;;;21.60;53.00;;;;;;5037400;28;20478;-66
2024/02/22 05:26:27;;;;;;;0.80;0.60;;;21.60;53.00;;;;;;5038204;28;20478;-66
2024/02/22 05:28:53;;;;;;;0.50;0.50;;;21.60;53.10;;;;;;5038573;28;20490;-66
2024/02/22 05:31:23;;;;;;;0.80;0.57;;;21.60;53.00;;;;;;5038568;28;20033;-66
2024/02/22 05:33:49;;;;;;;0.60;0.52;;;21.60;53.00;;;;;;5037720;28;20033;-67
2024/02/22 05:36:17;;;;;;;0.80;0.63;;;21.60;53.00;;;;;;5034645;28;20319;-66
2024/02/22 05:38:43;;;;;;;1.23;0.60;;;21.60;53.00;;;;;;5038867;28;20433;-66
2024/02/22 05:41:09;;;;;;;1.00;0.60;;;21.60;53.00;;;;;;5037925;28;20022;-67
2024/02/22 05:43:35;;;;;;;0.65;0.52;;;21.60;53.40;;;;;;5038538;28;20067;-67
2024/02/22 05:46:00;;;;;;;1.05;0.70;;;21.60;52.90;;;;;;5039848;28;20477;-67
2024/02/22 05:48:26;;;;;;;0.82;0.60;;;21.60;52.90;;;;;;5036618;28;20032;-66
2024/02/22 05:50:52;;;;;;;0.50;0.50;;;21.60;53.00;;;;;;5037318;28;20472;-67
2024/02/22 05:53:17;;;;;;;0.70;0.68;;;21.60;52.90;;;;;;5036608;28;20063;-67
2024/02/22 05:55:44;;;;;;;0.95;0.68;;;21.60;52.90;;;;;;5036653;28;20493;-67
2024/02/22 05:58:09;;;;;;;0.90;0.57;;;21.50;52.80;;;;;;5037948;28;20015;-66
2024/02/22 06:00:36;;;;;;;0.70;0.52;;;21.50;52.80;;;;;;5036674;28;20547;-67
2024/02/22 06:03:04;;;;;;;1.00;0.60;;;21.50;52.90;;;;;;5036769;28;20139;-66
2024/02/22 06:05:29;;;;;;;0.75;0.60;;;21.50;52.80;;;;;;5036588;28;20033;-66
2024/02/22 06:07:55;;;;;;;1.05;0.70;;;21.50;52.90;;;;;;5039572;28;20033;-66
2024/02/22 06:10:22;;;;;;;0.63;0.60;;;21.50;52.80;;;;;;5037538;28;20061;-67
2024/02/22 06:12:48;;;;;;;0.77;0.65;;;21.50;52.80;;;;;;5036306;28;20511;-67
2024/02/22 06:15:13;;;;;;;0.82;0.55;;;21.50;52.80;;;;;;5038013;28;20111;-67
2024/02/22 06:17:39;;;;;;;0.70;0.60;;;21.50;52.80;;;;;;5039254;28;20481;-64
2024/02/22 06:20:05;;;;;;;0.88;0.52;;;21.50;53.40;;;;;;5033079;28;20792;-67
2024/02/22 06:22:32;;;;;;;1.33;0.73;;;21.50;52.80;;;;;;5036722;28;20024;-67
2024/02/22 06:24:58;;;;;;;0.80;0.50;;;21.50;52.80;;;;;;5037382;28;20468;-66
2024/02/22 06:27:23;;;;;;;0.70;0.55;;;21.50;52.80;;;;;;5036754;28;20040;-66
2024/02/22 06:29:49;;;;;;;0.60;0.60;;;21.50;52.80;;;;;;5037094;28;20033;-67
2024/02/22 06:32:14;;;;;;;0.82;0.70;;;21.50;52.80;;;;;;5039027;28;20033;-67
2024/02/22 06:34:40;;;;;;;1.00;0.70;;;21.50;52.80;;;;;;5035990;28;20404;-66
2024/02/22 06:37:06;;;;;;;0.90;0.70;;;21.50;52.80;;;;;;5038686;28;20076;-66
2024/02/22 06:39:31;;;;;;;0.90;0.60;;;21.40;52.70;;;;;;5041035;28;20040;-66
2024/02/22 06:41:57;;;;;;;1.02;0.73;;;21.40;52.70;;;;;;5041060;28;20040;-66
2024/02/22 06:44:22;;;;;;;1.48;0.80;;;21.50;52.80;;;;;;5042197;28;20120;-68
2024/02/22 06:46:48;;;;;;;1.30;0.70;;;21.40;52.60;;;;;;5043129;28;20540;-67
2024/02/22 06:49:15;;;;;;;0.80;0.60;;;21.40;52.90;;;;;;5041268;28;20148;-67
2024/02/22 06:51:42;;;;;;;1.98;0.80;;;21.50;54.30;;;;;;5041160;28;20550;-67
2024/02/22 06:54:08;;;;;;;1.05;0.68;;;21.60;54.70;;;;;;5041526;28;20069;-67
2024/02/22 06:56:34;;;;;;;0.60;0.60;;;21.80;54.60;;;;;;5038842;28;20030;-66
2024/02/22 06:58:59;;;;;;;1.27;0.70;;;21.90;54.70;;;;;;5039746;28;20366;-67
2024/02/22 07:01:25;;;;;;;1.23;0.60;;;22.10;54.50;;;;;;5039812;28;20025;-66
2024/02/22 07:03:51;;;;;;;1.63;0.57;;;22.40;53.90;;;;;;5040500;28;20490;-66
2024/02/22 07:06:16;;;;;;;1.70;0.50;;;22.70;53.30;;;;;;5034697;28;20044;-66
2024/02/22 07:08:42;;;;;;;0.88;0.50;;;23.00;53.10;;;;;;5038727;28;20030;-66
2024/02/22 07:11:11;;;;;;;1.10;0.65;;;23.20;52.60;;;;;;5039041;28;20033;-66
2024/02/22 07:13:37;;;;;;;1.00;0.60;;;23.50;52.40;;;;;;5040933;28;20028;-67
2024/02/22 07:16:03;;;;;;;0.55;0.50;;;23.60;52.00;;;;;;5040797;28;20029;-66
2024/02/22 07:18:28;;;;;;;0.98;0.60;;;23.80;51.80;;;;;;5039615;28;20036;-66
2024/02/22 07:20:57;;;;;;;1.02;0.40;;;23.70;52.10;;;;;;5039780;28;20037;-66
2024/02/22 07:23:22;;;;;;;0.70;0.53;;;23.50;52.40;;;;;;5038817;28;20039;-67
2024/02/22 07:25:48;;;;;;;0.77;0.52;;;23.40;52.70;;;;;;5038002;28;20026;-67
2024/02/22 07:28:15;;;;;;;0.85;0.52;;;23.30;52.80;;;;;;5040555;28;20029;-64
2024/02/22 07:30:41;;;;;;;0.82;0.60;;;23.20;53.00;;;;;;5039881;28;20021;-64
2024/02/22 07:33:09;;;;;;;0.50;0.50;;;23.30;53.90;;;;;;5038553;28;20029;-64
2024/02/22 07:35:35;;;;;;;0.75;0.60;;;23.50;54.10;;;;;;5037045;28;20427;-65
2024/02/22 07:38:01;;;;;;;0.75;0.45;;;23.50;53.60;;;;;;5039662;28;20087;-64
2024/02/22 07:40:26;;;;;;;0.57;0.55;;;23.50;53.50;;;;;;5041167;28;20025;-64
2024/02/22 07:42:52;;;;;;;1.27;0.73;;;23.50;53.60;;;;;;5039259;28;20025;-64
2024/02/22 07:45:18;;;;;;;1.15;0.60;;;23.60;53.90;;;;;;5039428;28;20027;-64
2024/02/22 07:47:44;;;;;;;0.88;0.50;;;23.70;53.60;;;;;;5040118;28;20032;-65
2024/02/22 07:50:10;;;;;;;1.13;0.52;;;23.70;53.60;;;;;;5037441;28;20033;-67
2024/02/22 07:52:40;;;;;;;0.50;0.50;;;23.70;53.50;;;;;;5038893;28;20109;-67
2024/02/22 07:55:06;;;;;;;;;;;23.80;53.70;;;;;;5040306;28;20037;-68
2024/02/22 07:57:32;;;;;;;2.50;0.65;;;23.90;53.30;;;;;;5035189;28;19920;-67
2024/02/22 07:59:57;;;;;;;0.80;0.50;;;23.90;53.20;;;;;;5039710;28;20515;-67
2024/02/22 08:02:23;;;;;;;1.05;0.60;;;23.90;53.20;;;;;;5039931;28;20063;-67
2024/02/22 08:04:50;;;;;;;1.05;0.70;;;23.80;50.90;;;;;;5037090;28;20032;-67
2024/02/22 08:07:16;;;;;;;0.93;0.77;;;23.70;50.30;;;;;;5039216;28;20505;-67
2024/02/22 08:09:42;;;;;;;1.63;0.80;;;23.60;49.90;;;;;;5040903;28;20362;-67
2024/02/22 08:12:09;;;;;;;1.63;0.90;;;23.50;49.50;;;;;;5038670;28;20036;-67
2024/02/22 08:14:34;;;;;;;1.02;0.68;;;23.50;50.10;;;;;;5040373;28;20018;-67
2024/02/22 08:17:00;;;;;;;0.77;0.57;;;23.60;50.50;;;;;;5040694;28;20026;-66
2024/02/22 08:19:26;;;;;;;0.88;0.60;;;23.70;50.70;;;;;;5040968;28;20022;-67
2024/02/22 08:21:51;;;;;;;0.95;0.60;;;23.70;50.80;;;;;;5036129;28;20033;-67
2024/02/22 08:24:17;;;;;;;0.88;0.57;;;23.70;50.90;;;;;;5040463;28;20030;-67
2024/02/22 08:26:43;;;;;;;1.73;0.90;;;23.70;51.10;;;;;;5038630;28;20033;-67
2024/02/22 08:29:09;;;;;;;1.33;0.73;;;23.80;51.00;;;;;;5039087;28;20035;-66
2024/02/22 08:31:35;;;;;;;0.73;0.50;;;23.80;51.30;;;;;;5038156;28;20025;-67
2024/02/22 08:34:00;;;;;;;1.10;0.68;;;23.80;51.50;;;;;;5039551;28;20036;-67
2024/02/22 08:36:26;;;;;;;1.02;0.60;;;23.90;52.20;;;;;;5036634;28;20040;-67
2024/02/22 08:38:52;;;;;;;1.08;0.60;;;23.90;51.90;;;;;;5038275;28;20033;-66
2024/02/22 08:41:17;;;;;;;0.60;0.52;;;23.90;52.10;;;;;;5038413;28;20029;-65
2024/02/22 08:43:43;;;;;;;1.08;0.70;;;23.90;52.20;;;;;;5038897;28;20025;-65
2024/02/22 08:46:08;;;;;;;1.00;0.70;;;23.90;52.10;;;;;;5037715;28;20037;-65
2024/02/22 08:48:35;;;;;;;0.82;0.70;;;23.90;52.80;;;;;;5038783;28;20090;-63
2024/02/22 08:51:02;;;;;;;1.48;0.60;;;24.00;52.60;;;;;;5037676;28;20032;-62
2024/02/22 08:53:27;;;;;;;0.60;0.57;;;24.00;52.70;;;;;;5040078;28;20048;-62
2024/02/22 08:55:53;;;;;;;1.20;0.80;;;24.00;53.50;;;;;;5038199;28;20063;-62
2024/02/22 08:58:19;;;;;;;1.60;0.95;;;24.00;51.10;;;;;;5050750;28;20021;-67
2024/02/22 09:00:44;;;;;;;1.83;0.90;;;23.90;49.40;;;;;;5039322;28;20025;-66
2024/02/22 09:03:10;;;;;;;0.98;0.70;;;23.90;49.60;;;;;;5039449;28;20039;-66
2024/02/22 09:05:36;;;;;;;1.65;0.70;;;23.90;50.10;;;;;;5037304;28;20447;-66
2024/02/22 09:08:02;;;;;;;0.80;0.65;;;23.90;50.40;;;;;;5039929;28;20040;-66
2024/02/22 09:10:28;;;;;;;1.48;0.77;;;23.90;50.70;;;;;;5038643;28;20044;-66
2024/02/22 09:12:54;;;;;;;0.65;0.60;;;23.90;51.00;;;;;;5055404;28;20037;-66
2024/02/22 09:15:19;;;;;;;0.60;0.60;;;23.90;51.20;;;;;;5039743;28;20500;-66
2024/02/22 09:17:45;;;;;;;1.00;0.70;;;23.90;51.40;;;;;;5038448;28;20091;-66
2024/02/22 09:20:12;;;;;;;0.77;0.63;;;24.00;51.80;;;;;;5037172;28;20029;-66
2024/02/22 09:22:41;;;;;;;0.50;0.50;;;24.00;52.10;;;;;;5038266;28;20482;-66
2024/02/22 09:25:08;;;;;;;1.30;0.70;;;24.00;52.30;;;;;;5038665;28;20067;-66
2024/02/22 09:27:34;;;;;;;1.25;0.60;;;24.00;52.40;;;;;;5039904;28;20401;-66
2024/02/22 09:30:02;;;;;;;0.65;0.50;;;24.10;52.60;;;;;;5039551;28;20029;-66
2024/02/22 09:32:28;;;;;;;0.60;0.60;;;24.10;52.70;;;;;;5037424;28;20021;-66
2024/02/22 09:34:54;;;;;;;0.63;0.60;;;24.10;53.00;;;;;;5038077;28;20032;-66
2024/02/22 09:37:19;;;;;;;0.70;0.60;;;24.10;53.20;;;;;;5036660;28;20025;-66
2024/02/22 09:39:46;;;;;;;0.70;0.50;;;24.10;53.40;;;;;;5034011;28;20108;-66
2024/02/22 09:42:13;;;;;;;1.45;0.60;;;24.10;53.60;;;;;;5037613;28;20424;-66
2024/02/22 09:44:39;;;;;;;0.60;0.50;;;24.20;53.80;;;;;;5036443;28;20056;-66
2024/02/22 09:47:04;;;;;;;0.70;0.60;;;24.10;53.90;;;;;;5034858;28;20083;-66
2024/02/22 09:49:31;;;;;;;0.43;0.43;;;24.10;54.00;;;;;;5037342;28;20039;-64
2024/02/22 09:51:56;;;;;;;0.60;0.60;;;24.20;54.50;;;;;;5036507;28;20132;-65
2024/02/22 09:54:23;;;;;;;0.82;0.50;;;24.20;54.50;;;;;;5037352;28;20371;-65
2024/02/22 09:56:50;;;;;;;0.55;0.52;;;24.20;54.70;;;;;;5037284;28;20073;-65
2024/02/22 09:59:16;;;;;;;1.15;0.55;;;24.20;54.70;;;;;;5038227;28;20025;-65
2024/02/22 10:01:43;;;;;;;0.73;0.60;;;24.20;54.70;;;;;;5036232;28;20021;-64
2024/02/22 10:04:16;;;;;;;0.50;0.50;;;24.20;54.70;;;;;;5035491;28;20108;-65
2024/02/22 10:06:42;;;;;;;0.77;0.60;;;24.30;54.70;;;;;;5036635;28;20095;-64
2024/02/22 10:09:11;;;;;;;1.27;0.60;;;24.30;54.90;;;;;;5037735;28;20550;-64
2024/02/22 10:11:43;;;;;;;0.93;0.68;;;24.30;54.90;;;;;;5034379;28;20037;-65
2024/02/22 10:14:13;;;;;;;0.80;0.60;;;24.30;54.90;;;;;;5037643;28;20924;-65
2024/02/22 10:16:40;;;;;;;1.33;0.60;;;24.30;54.90;;;;;;5037868;28;20066;-65
2024/02/22 10:19:06;;;;;;;0.68;0.60;;;24.30;54.90;;;;;;5038217;28;20021;-65
2024/02/22 10:21:32;;;;;;;0.68;0.50;;;24.30;55.00;;;;;;5034205;28;20441;-64
2024/02/22 10:24:02;;;;;;;0.57;0.50;;;24.30;54.90;;;;;;5037303;28;20037;-65
2024/02/22 10:26:28;;;;;;;0.80;0.60;;;24.30;54.80;;;;;;5036636;28;20037;-65
2024/02/22 10:29:06;;;;;;;0.50;0.50;;;24.30;54.60;;;;;;5039089;28;20476;-64
2024/02/22 10:31:33;;;;;;;0.82;0.60;;;24.40;54.70;;;;;;5037593;28;20029;-65
2024/02/22 10:34:02;;;;;;;0.43;0.43;;;24.30;54.60;;;;;;5032943;28;20176;-65
2024/02/22 10:36:28;;;;;;;0.57;0.50;;;24.30;54.40;;;;;;5033210;28;20046;-65
2024/02/22 10:38:55;;;;;;;0.90;0.60;;;24.40;54.50;;;;;;5038433;28;20041;-64
2024/02/22 10:41:22;;;;;;;0.35;0.35;;;24.40;54.40;;;;;;5035372;28;20116;-64
2024/02/22 10:43:50;;;;;;;1.27;0.73;;;24.40;54.10;;;;;;5038110;28;20034;-65
2024/02/22 10:46:17;;;;;;;1.65;0.70;;;24.40;51.30;;;;;;5036523;28;20453;-64
2024/02/22 10:48:53;;;;;;;0.93;0.70;;;24.40;49.70;;;;;;5038049;28;20484;-64
2024/02/22 10:51:21;;;;;;;2.05;1.08;;;24.30;48.70;;;;;;5037568;28;20026;-64
2024/02/22 10:53:54;;;;;;;1.20;0.70;;;24.30;48.30;;;;;;5040414;28;20100;-64
2024/02/22 10:56:24;;;;;;;0.82;0.70;;;24.20;47.90;;;;;;5036606;28;20022;-64
2024/02/22 10:58:57;;;;;;;;;;;24.10;47.50;;;;;;5036407;28;20033;-63
2024/02/22 11:01:26;;;;;;;1.67;1.13;;;24.10;47.70;;;;;;5035408;28;19912;-62
2024/02/22 11:03:52;;;;;;;1.85;1.30;;;24.10;47.50;;;;;;5038990;28;20047;-63
2024/02/22 11:06:21;;;;;;;2.75;1.45;;;24.10;48.20;;;;;;5033881;28;20869;-62
2024/02/22 11:08:51;;;;;;;2.40;1.40;;;24.00;48.80;;;;;;5037723;28;20421;-62
2024/02/22 11:11:29;;;;;;;1.75;1.10;;;24.00;49.30;;;;;;5037188;28;20079;-66
2024/02/22 11:14:02;;;;;;;1.83;1.10;;;24.10;49.70;;;;;;5036552;28;20136;-66
2024/02/22 11:16:35;;;;;;;1.85;1.20;;;24.10;50.50;;;;;;5034006;28;20029;-66
2024/02/22 11:19:12;;;;;;;2.45;1.10;;;24.10;50.70;;;;;;5036337;28;20022;-66
2024/02/22 11:21:38;;;;;;;2.20;1.20;;;24.10;50.50;;;;;;5036739;28;20144;-67
2024/02/22 11:24:08;;;;;;;2.47;1.23;;;24.20;50.70;;;;;;5042809;28;20061;-66
2024/02/22 11:26:34;;;;;;;3.80;1.00;;;24.20;50.80;;;;;;5040727;28;20507;-67
2024/02/22 11:29:00;;;;;;;3.58;1.08;;;24.20;51.50;;;;;;5039834;28;20033;-67
2024/02/22 11:31:27;;;;;;;2.58;1.10;;;24.20;51.50;;;;;;5040070;28;20424;-67
2024/02/22 11:33:53;;;;;;;2.45;0.90;;;24.20;51.70;;;;;;5037780;28;20021;-67
2024/02/22 11:36:19;;;;;;;1.70;1.00;;;24.20;52.30;;;;;;5038525;28;20413;-66
2024/02/22 11:38:45;;;;;;;2.08;0.85;;;24.20;52.00;;;;;;5039619;28;20029;-67
2024/02/22 11:41:12;;;;;;;1.67;1.00;;;24.30;52.10;;;;;;5040440;28;20071;-67
2024/02/22 11:43:38;;;;;;;2.17;0.98;;;24.30;52.20;;;;;;5038810;28;20037;-67
2024/02/22 11:46:05;;;;;;;1.50;0.90;;;24.30;52.20;;;;;;5040457;28;20028;-66
2024/02/22 11:48:31;;;;;;;1.42;0.82;;;24.30;52.20;;;;;;5038661;28;20030;-66
2024/02/22 11:50:56;;;;;;;2.13;0.80;;;24.30;52.20;;;;;;5037990;28;20039;-66
2024/02/22 11:53:22;;;;;;;1.25;0.75;;;24.30;52.30;;;;;;5036312;28;20172;-66
2024/02/22 11:55:51;;;;;;;1.33;0.82;;;24.30;52.30;;;;;;5036926;28;20109;-67
2024/02/22 11:58:17;;;;;;;1.60;0.90;;;24.30;52.20;;;;;;5039037;28;20037;-66
2024/02/22 12:00:44;;;;;;;1.33;0.80;;;24.40;52.30;;;;;;5038922;28;20516;-66
2024/02/22 12:03:12;;;;;;;2.38;0.90;;;24.30;52.20;;;;;;5040140;28;20550;-66
2024/02/22 12:05:38;;;;;;;0.67;0.60;;;24.40;52.30;;;;;;5039160;28;20477;-65
2024/02/22 12:08:05;;;;;;;1.50;0.93;;;24.30;52.20;;;;;;5035542;28;20037;-66
2024/02/22 12:10:30;;;;;;;1.98;1.10;;;24.30;49.60;;;;;;5039206;28;20116;-65
2024/02/22 12:12:56;;;;;;;1.67;0.90;;;24.30;47.70;;;;;;5039039;28;20125;-64
2024/02/22 12:15:22;;;;;;;1.40;0.90;;;24.30;48.50;;;;;;5042521;28;20108;-64
2024/02/22 12:17:51;;;;;;;1.63;0.90;;;24.20;49.00;;;;;;5039423;28;20033;-64
2024/02/22 12:20:25;;;;;;;1.17;0.80;;;24.20;49.40;;;;;;5039693;28;20075;-65
2024/02/22 12:22:54;;;;;;;1.15;0.70;;;24.30;49.70;;;;;;5038024;28;20505;-64
2024/02/22 12:25:20;;;;;;;1.27;0.68;;;24.30;49.90;;;;;;5037909;28;20029;-64
2024/02/22 12:27:54;;;;;;;0.60;0.60;;;24.30;50.20;;;;;;5037416;28;20034;-64
2024/02/22 12:30:21;;;;;;;2.22;0.70;;;24.30;50.40;;;;;;5038408;28;20397;-63
2024/02/22 12:32:49;;;;;;;0.77;0.65;;;24.30;50.50;;;;;;5038394;28;20029;-63
2024/02/22 12:35:17;;;;;;;1.15;0.77;;;24.30;50.50;;;;;;5040016;28;20116;-62
2024/02/22 12:37:43;;;;;;;1.02;0.60;;;24.40;51.20;;;;;;5037089;28;20053;-61
2024/02/22 12:40:09;;;;;;;1.05;0.60;;;24.40;50.70;;;;;;5039316;28;20056;-63
2024/02/22 12:42:35;;;;;;;0.85;0.60;;;24.40;50.70;;;;;;5041261;28;20033;-63
2024/02/22 12:45:01;;;;;;;1.55;0.75;;;24.40;50.90;;;;;;5038474;28;20474;-63